Aviation Digital Data Service (ADDS)

Output produced by METARs form (2316 UTC 23 May 2022)
found at http://www.aviationweather.gov/metar/data/
 
VLVT 232300Z 02002KT 6000 SCT040 BKN200 24/24 Q1005 NOSIG